FMST

Toliara Airport

Madagascar
TAF FMST 171700Z 1718/1818 08005KT 9999 FEW020 BECMG 1806/1809 24010KT
Issued Valid From Valid To
Oct-17 @ 17:00 UTC
(3 hours ago)
Oct-17 @ 18:00 UTC
(2 hours ago)
Oct-18 @ 18:00 UTC
(in 22 hours)
Oct-17 @ 18:00 to Oct-18 @ 06:00
TAF FMST 171700Z 1718/1818 08005KT 9999 FEW020
Wind Visibility Clouds
80° at 5 knots 10,000+ meters
  • Few at 2,000' AGL
Becoming Oct-18 @ 06:00 to Oct-18 @ 18:00
BECMG 1806/1809 24010KT
Wind Visibility Clouds
240° at 10 knots 10,000+ meters
  • Few at 2,000' AGL
TAF FMST 171700Z 1718/1818 08005KT 9999 FEW020 BECMG 1806/1809 24010KT
Issued Oct-17 @ 17:00 UTC
(3 hours ago)
Valid From Oct-17 @ 18:00 UTC
(2 hours ago)
Valid To Oct-18 @ 18:00 UTC
(in 22 hours)
Oct-17 @ 18:00 - Oct-18 @ 06:00
Wind Visibility
80° at 5 knots 10,000+ meters
Clouds
  • Few at 2,000' AGL
Becoming Oct-18 @ 06:00 - Oct-18 @ 18:00
Wind Visibility
240° at 10 knots 10,000+ meters
Clouds
  • Few at 2,000' AGL